Napa — WDE8110 — position and weather

sailwx.info

Track history (hours):
 
Tides and Currents Weather Stations Pressure Air Temp Water Temp Dewpoint Dewpoint Depression Visibility Wind Speed Wind Dir Waves Ship Positions

Napa

Owner: Golden Gate Bridge Hwy. and Transportation District, San Francisco, CA. More information available from US FCC via Universal Licensing System and Coast Guard Vessel Documentation Center.

Last reported at 2018-Feb-17 03:47 UTC. Time now 2018-Feb-17 19:54 UTC.
Position N 37°57' W 122°30'.

Length 38 m; draft 0.15 m.

Type: Passenger vessel. MMSI: 36677150.

Date/timePositionNaut miles runAvg speedWind from/ knotsBaromVisibWave heightAir tempDewpointWater temp
2018-Feb-17 03:47N 37°57' W 122°30'724.6
2018-Feb-17 03:31N 37°52' W 122°24'0 0.8
2018-Feb-17 03:00N 37°52' W 122°25'713.1
2018-Feb-17 02:30N 37°57' W 122°30'1020.9
2018-Feb-17 02:00N 37°48' W 122°24'612.1
2018-Feb-17 01:30N 37°53' W 122°26'5 9.1
2018-Feb-17 01:00N 37°57' W 122°30'1020.8
2018-Feb-17 00:31N 37°48' W 122°24'4 9.0
2018-Feb-17 00:00N 37°52' W 122°25'612.4
2018-Feb-16 23:30N 37°57' W 122°30'1021.0
2018-Feb-16 23:00N 37°48' W 122°24'918.1
2018-Feb-16 22:30N 37°56' W 122°29'2 3.4
2018-Feb-16 22:00N 37°57' W 122°31'0 0.0
2018-Feb-16 21:30N 37°57' W 122°31'0 0.0
2018-Feb-16 21:00N 37°57' W 122°31'0 0.0
2018-Feb-16 20:30N 37°57' W 122°31'0 0.0
2018-Feb-16 20:00N 37°57' W 122°31'0 0.0
2018-Feb-16 19:30N 37°57' W 122°31'1020.9
2018-Feb-16 19:01N 37°48' W 122°23'3 6.9
2018-Feb-16 18:30N 37°51' W 122°25'714.1
2018-Feb-16 18:00N 37°57' W 122°30'3 6.7
2018-Feb-16 17:30N 37°55' W 122°27'815.0
2018-Feb-16 17:00N 37°48' W 122°24'919.3
2018-Feb-16 16:30N 37°56' W 122°29'0 0.8
2018-Feb-16 16:01N 37°56' W 122°30'1019.5
2018-Feb-16 15:30N 37°48' W 122°24'1020.9
2018-Feb-16 15:00N 37°57' W 122°30'917.7
2018-Feb-16 14:31N 37°50' W 122°24'510.4
2018-Feb-16 14:01N 37°54' W 122°27'4 7.5
2018-Feb-16 13:30N 37°57' W 122°30'0 0.0
2018-Feb-16 03:48N 37°57' W 122°30'722.8
2018-Feb-16 03:31N 37°52' W 122°24'1 2.5
2018-Feb-16 03:01N 37°53' W 122°26'611.1
2018-Feb-16 02:30N 37°57' W 122°30'1020.9
2018-Feb-16 02:00N 37°48' W 122°24'611.4
2018-Feb-16 01:31N 37°53' W 122°26'5 9.9
2018-Feb-16 01:00N 37°57' W 122°30'1019.8
2018-Feb-16 00:29N 37°48' W 122°24'510.0
2018-Feb-16 00:00N 37°52' W 122°25'611.9
2018-Feb-15 23:30N 37°57' W 122°30'1020.9
2018-Feb-15 23:00N 37°48' W 122°24'815.0
2018-Feb-15 22:30N 37°55' W 122°27'3 6.5
2018-Feb-15 22:00N 37°57' W 122°31'0 0.0
2018-Feb-15 21:31N 37°57' W 122°31'0 0.0
2018-Feb-15 21:01N 37°57' W 122°31'0 0.0
2018-Feb-15 20:31N 37°57' W 122°31'0 0.0
2018-Feb-15 20:01N 37°57' W 122°31'0 0.0
2018-Feb-15 19:30N 37°57' W 122°31'1020.3
2018-Feb-15 19:00N 37°48' W 122°23'4 7.3
2018-Feb-15 18:31N 37°52' W 122°25'713.0
2018-Feb-15 18:00N 37°57' W 122°30'4 7.1
2018-Feb-15 17:31N 37°55' W 122°27'714.7
2018-Feb-15 17:00N 37°48' W 122°24'917.8
2018-Feb-15 16:30N 37°56' W 122°28'1 2.1
2018-Feb-15 16:01N 37°56' W 122°30'1019.3
2018-Feb-15 15:30N 37°48' W 122°24'1020.8
2018-Feb-15 15:00N 37°57' W 122°30'816.0
2018-Feb-15 14:31N 37°51' W 122°24'4 7.2
2018-Feb-15 14:01N 37°54' W 122°26'4 8.8
2018-Feb-15 13:30N 37°57' W 122°30'0 0.0
2018-Feb-15 03:47N 37°57' W 122°30'725.0
2018-Feb-15 03:31N 37°51' W 122°24'2 4.6
2018-Feb-15 03:00N 37°53' W 122°26'5 9.6
2018-Feb-15 02:30N 37°57' W 122°30'1021.4
2018-Feb-15 02:00N 37°48' W 122°24'5 9.0
2018-Feb-15 01:31N 37°52' W 122°25'612.2
2018-Feb-15 01:00N 37°57' W 122°30'1020.8
2018-Feb-15 00:30N 37°48' W 122°24'5 9.5
2018-Feb-15 00:01N 37°52' W 122°25'611.9
2018-Feb-14 23:30N 37°57' W 122°30'1020.9
2018-Feb-14 23:00N 37°48' W 122°24'714.0
2018-Feb-14 22:31N 37°54' W 122°27'4 6.3
2018-Feb-14 21:56N 37°57' W 122°30'0 0.0
2018-Feb-14 20:08N 37°57' W 122°30'0 0.0
2018-Feb-14 20:00N 37°57' W 122°30'0 0.0
2018-Feb-14 19:30N 37°57' W 122°30'1020.0
2018-Feb-14 19:00N 37°49' W 122°23'4 7.2
2018-Feb-14 18:31N 37°52' W 122°25'612.9
2018-Feb-14 18:00N 37°57' W 122°30'3 7.0
2018-Feb-14 17:30N 37°55' W 122°27'714.8
2018-Feb-14 17:00N 37°48' W 122°24'1019.1
2018-Feb-14 16:30N 37°56' W 122°29'0 0.2
2018-Feb-14 16:01N 37°56' W 122°29'918.8
2018-Feb-14 15:30N 37°48' W 122°24'1021.0
2018-Feb-14 15:00N 37°57' W 122°30'714.7
2018-Feb-14 14:31N 37°51' W 122°24'3 6.8
2018-Feb-14 14:01N 37°54' W 122°27'4 8.0
2018-Feb-14 13:30N 37°57' W 122°30'0 0.0
2018-Feb-14 03:48N 37°57' W 122°30'724.2
2018-Feb-14 03:31N 37°52' W 122°24'1 2.9
2018-Feb-14 03:00N 37°53' W 122°25'611.2
2018-Feb-14 02:30N 37°57' W 122°30'1020.9
2018-Feb-14 02:00N 37°48' W 122°24'613.0
2018-Feb-14 01:31N 37°54' W 122°27'4 8.4
2018-Feb-14 01:01N 37°57' W 122°30'1020.7
2018-Feb-14 00:30N 37°48' W 122°24'5 9.6
2018-Feb-14 00:01N 37°52' W 122°25'611.8
2018-Feb-13 23:30N 37°57' W 122°30'1020.9
2018-Feb-13 23:00N 37°48' W 122°24'714.6
2018-Feb-13 22:30N 37°54' W 122°27'4 6.9
2018-Feb-13 22:00N 37°57' W 122°31'0 0.0
2018-Feb-13 21:30N 37°57' W 122°31'0 0.0
2018-Feb-13 21:00N 37°57' W 122°31'0 0.0
2018-Feb-13 20:30N 37°57' W 122°31'0 0.0
2018-Feb-13 20:00N 37°57' W 122°31'0 0.0
2018-Feb-13 19:30N 37°57' W 122°31'1020.4
2018-Feb-13 19:01N 37°49' W 122°23'3 5.7
2018-Feb-13 18:30N 37°51' W 122°24'714.6
2018-Feb-13 18:01N 37°57' W 122°30'4 7.7
2018-Feb-13 17:31N 37°54' W 122°27'714.0
2018-Feb-13 17:00N 37°48' W 122°24'917.1
2018-Feb-13 16:31N 37°56' W 122°28'1 2.6
2018-Feb-13 16:00N 37°56' W 122°29'1019.2
2018-Feb-13 15:30N 37°48' W 122°24'1020.9
2018-Feb-13 15:00N 37°57' W 122°30'714.0
2018-Feb-13 14:31N 37°52' W 122°24'3 5.1
2018-Feb-13 14:01N 37°54' W 122°27'4 8.3
2018-Feb-13 13:29N 37°57' W 122°30'0 0.0
2018-Feb-13 03:50N 37°57' W 122°30'823.7
2018-Feb-13 03:31N 37°51' W 122°24'2 4.8
2018-Feb-13 03:00N 37°53' W 122°26'611.0
2018-Feb-13 02:30N 37°57' W 122°30'1020.8
2018-Feb-13 02:01N 37°48' W 122°23'510.5
2018-Feb-13 01:31N 37°53' W 122°26'5 9.8
2018-Feb-13 01:01N 37°56' W 122°30'1020.1
2018-Feb-13 00:30N 37°48' W 122°24'5 9.8
2018-Feb-13 00:01N 37°52' W 122°25'611.1
2018-Feb-12 23:31N 37°56' W 122°30'1020.0
2018-Feb-12 23:00N 37°48' W 122°24'714.8
2018-Feb-12 22:31N 37°54' W 122°27'3 6.8
2018-Feb-12 22:00N 37°57' W 122°31'0 0.0
2018-Feb-12 21:30N 37°57' W 122°31'0 0.0
2018-Feb-12 21:00N 37°57' W 122°31'0 0.0
2018-Feb-12 20:30N 37°57' W 122°31'0 0.0
2018-Feb-12 20:00N 37°57' W 122°31'0 0.0
2018-Feb-12 19:30N 37°57' W 122°31'1020.9
2018-Feb-12 19:00N 37°48' W 122°23'3 5.9
2018-Feb-12 18:31N 37°51' W 122°25'714.8
2018-Feb-12 18:00N 37°57' W 122°30'3 6.9
2018-Feb-12 17:31N 37°55' W 122°27'814.9
2018-Feb-12 17:00N 37°48' W 122°24'817.1
2018-Feb-12 16:31N 37°55' W 122°28'0 0.6
2018-Feb-12 16:01N 37°56' W 122°28'917.4
2018-Feb-12 15:30N 37°48' W 122°24'1020.9
2018-Feb-12 15:00N 37°57' W 122°30'816.5
2018-Feb-12 14:31N 37°50' W 122°24'5 9.8
2018-Feb-12 14:01N 37°54' W 122°27'3 6.6
2018-Feb-12 13:29N 37°57' W 122°30'  
2018-Feb-10 03:46N 37°57' W 122°30'726.5
2018-Feb-10 03:30N 37°52' W 122°24'2 4.6
2018-Feb-10 03:01N 37°49' W 122°24'917.8
2018-Feb-10 02:30N 37°57' W 122°30'1020.3
2018-Feb-10 01:59N 37°48' W 122°24'611.5
2018-Feb-10 01:30N 37°53' W 122°26'510.4
2018-Feb-10 01:01N 37°57' W 122°30'1020.7
2018-Feb-10 00:30N 37°48' W 122°24'510.6
2018-Feb-10 00:00N 37°53' W 122°25'510.9
2018-Feb-09 23:30N 37°57' W 122°30'1020.8
2018-Feb-09 23:00N 37°48' W 122°24'0 0.0
2018-Feb-09 22:46N 37°48' W 122°24'1 0.2
2018-Feb-09 19:00N 37°48' W 122°23'4 7.4
2018-Feb-09 18:30N 37°52' W 122°25'4 2.8
2018-Feb-09 17:01N 37°48' W 122°24'1019.4
2018-Feb-09 16:31N 37°56' W 122°30'0 0.0
2018-Feb-09 16:00N 37°56' W 122°30'1019.5
2018-Feb-09 15:30N 37°48' W 122°24'4 3.8
2018-Feb-09 14:30N 37°52' W 122°24'0 0.0
2018-Feb-09 03:30N 37°52' W 122°24'1 2.2
2018-Feb-09 03:00N 37°52' W 122°25'611.7
2018-Feb-09 02:30N 37°57' W 122°30'6 6.0
2018-Feb-09 01:31N 37°52' W 122°25'611.8
2018-Feb-09 01:00N 37°57' W 122°30'5 4.9
2018-Feb-09 00:00N 37°53' W 122°26'1 1.0
2018-Feb-08 22:31N 37°54' W 122°27'4 7.1
2018-Feb-08 22:00N 37°57' W 122°31'0 0.0
2018-Feb-08 21:30N 37°57' W 122°31'0 0.0
2018-Feb-08 21:00N 37°57' W 122°31'0 0.0
2018-Feb-08 20:30N 37°57' W 122°31'0 0.0
2018-Feb-08 20:00N 37°57' W 122°31'0 0.0
2018-Feb-08 19:30N 37°57' W 122°31'1019.8
2018-Feb-08 19:00N 37°49' W 122°23'10 9.8
2018-Feb-08 18:00N 37°57' W 122°30'1010.4
2018-Feb-08 17:00N 37°48' W 122°24'1 0.5
2018-Feb-08 14:30N 37°49' W 122°23'10 9.7
2018-Feb-08 13:30N 37°57' W 122°30'0 0.0
2018-Feb-08 04:30N 37°57' W 122°30'7 7.0
2018-Feb-08 03:30N 37°52' W 122°24'2 3.4
2018-Feb-08 03:00N 37°53' W 122°26'510.5
2018-Feb-08 02:30N 37°57' W 122°30'3 3.2
2018-Feb-08 01:30N 37°55' W 122°27'3 6.4
2018-Feb-08 01:01N 37°57' W 122°30'1020.8
2018-Feb-08 00:30N 37°48' W 122°24'5 9.6
2018-Feb-08 00:01N 37°52' W 122°25'611.8
2018-Feb-07 23:30N 37°57' W 122°30'1020.9
2018-Feb-07 23:00N 37°48' W 122°24'815.8
2018-Feb-07 22:30N 37°55' W 122°27'3 5.9
2018-Feb-07 22:00N 37°57' W 122°31'0 0.0
2018-Feb-07 21:31N 37°57' W 122°31'0 0.0
2018-Feb-07 06:06N 37°57' W 122°30'0 0.2
2018-Feb-07 06:00N 37°57' W 122°30'0 0.3
2018-Feb-07 05:31N 37°57' W 122°30'0 0.0
2018-Feb-07 04:30N 37°57' W 122°30'0 0.0
2018-Feb-07 04:00N 37°57' W 122°30'  
Track history (hours):
 
Tides and Currents Weather Stations Pressure Air Temp Water Temp Dewpoint Dewpoint Depression Visibility Wind Speed Wind Dir Waves Ship Positions

Napa

Owner: Golden Gate Bridge Hwy. and Transportation District, San Francisco, CA. More information available from US FCC via Universal Licensing System and Coast Guard Vessel Documentation Center.

Last reported at 2018-Feb-17 03:47 UTC. Time now 2018-Feb-17 19:54 UTC.
Position N 37°57' W 122°30'.

Length 38 m; draft 0.15 m.

Type: Passenger vessel. MMSI: 36677150.

Date/timePositionNaut miles runAvg speedWind from/ knotsBaromVisibWave heightAir tempDewpointWater temp
2018-Feb-17 03:47N 37°57' W 122°30'724.6
2018-Feb-17 03:31N 37°52' W 122°24'0 0.8
2018-Feb-17 03:00N 37°52' W 122°25'713.1
2018-Feb-17 02:30N 37°57' W 122°30'1020.9
2018-Feb-17 02:00N 37°48' W 122°24'612.1
2018-Feb-17 01:30N 37°53' W 122°26'5 9.1
2018-Feb-17 01:00N 37°57' W 122°30'1020.8
2018-Feb-17 00:31N 37°48' W 122°24'4 9.0
2018-Feb-17 00:00N 37°52' W 122°25'612.4
2018-Feb-16 23:30N 37°57' W 122°30'1021.0
2018-Feb-16 23:00N 37°48' W 122°24'918.1
2018-Feb-16 22:30N 37°56' W 122°29'2 3.4
2018-Feb-16 22:00N 37°57' W 122°31'0 0.0
2018-Feb-16 21:30N 37°57' W 122°31'0 0.0
2018-Feb-16 21:00N 37°57' W 122°31'0 0.0
2018-Feb-16 20:30N 37°57' W 122°31'0 0.0
2018-Feb-16 20:00N 37°57' W 122°31'0 0.0
2018-Feb-16 19:30N 37°57' W 122°31'1020.9
2018-Feb-16 19:01N 37°48' W 122°23'3 6.9
2018-Feb-16 18:30N 37°51' W 122°25'714.1
2018-Feb-16 18:00N 37°57' W 122°30'3 6.7
2018-Feb-16 17:30N 37°55' W 122°27'815.0
2018-Feb-16 17:00N 37°48' W 122°24'919.3
2018-Feb-16 16:30N 37°56' W 122°29'0 0.8
2018-Feb-16 16:01N 37°56' W 122°30'1019.5
2018-Feb-16 15:30N 37°48' W 122°24'1020.9
2018-Feb-16 15:00N 37°57' W 122°30'917.7
2018-Feb-16 14:31N 37°50' W 122°24'510.4
2018-Feb-16 14:01N 37°54' W 122°27'4 7.5
2018-Feb-16 13:30N 37°57' W 122°30'0 0.0
2018-Feb-16 03:48N 37°57' W 122°30'722.8
2018-Feb-16 03:31N 37°52' W 122°24'1 2.5
2018-Feb-16 03:01N 37°53' W 122°26'611.1
2018-Feb-16 02:30N 37°57' W 122°30'1020.9
2018-Feb-16 02:00N 37°48' W 122°24'611.4
2018-Feb-16 01:31N 37°53' W 122°26'5 9.9
2018-Feb-16 01:00N 37°57' W 122°30'1019.8
2018-Feb-16 00:29N 37°48' W 122°24'510.0
2018-Feb-16 00:00N 37°52' W 122°25'611.9
2018-Feb-15 23:30N 37°57' W 122°30'1020.9
2018-Feb-15 23:00N 37°48' W 122°24'815.0
2018-Feb-15 22:30N 37°55' W 122°27'3 6.5
2018-Feb-15 22:00N 37°57' W 122°31'0 0.0
2018-Feb-15 21:31N 37°57' W 122°31'0 0.0
2018-Feb-15 21:01N 37°57' W 122°31'0 0.0
2018-Feb-15 20:31N 37°57' W 122°31'0 0.0
2018-Feb-15 20:01N 37°57' W 122°31'0 0.0
2018-Feb-15 19:30N 37°57' W 122°31'1020.3
2018-Feb-15 19:00N 37°48' W 122°23'4 7.3
2018-Feb-15 18:31N 37°52' W 122°25'713.0
2018-Feb-15 18:00N 37°57' W 122°30'4 7.1
2018-Feb-15 17:31N 37°55' W 122°27'714.7
2018-Feb-15 17:00N 37°48' W 122°24'917.8
2018-Feb-15 16:30N 37°56' W 122°28'1 2.1
2018-Feb-15 16:01N 37°56' W 122°30'1019.3
2018-Feb-15 15:30N 37°48' W 122°24'1020.8
2018-Feb-15 15:00N 37°57' W 122°30'816.0
2018-Feb-15 14:31N 37°51' W 122°24'4 7.2
2018-Feb-15 14:01N 37°54' W 122°26'4 8.8
2018-Feb-15 13:30N 37°57' W 122°30'0 0.0
2018-Feb-15 03:47N 37°57' W 122°30'725.0
2018-Feb-15 03:31N 37°51' W 122°24'2 4.6
2018-Feb-15 03:00N 37°53' W 122°26'5 9.6
2018-Feb-15 02:30N 37°57' W 122°30'1021.4
2018-Feb-15 02:00N 37°48' W 122°24'5 9.0
2018-Feb-15 01:31N 37°52' W 122°25'612.2
2018-Feb-15 01:00N 37°57' W 122°30'1020.8
2018-Feb-15 00:30N 37°48' W 122°24'5 9.5
2018-Feb-15 00:01N 37°52' W 122°25'611.9
2018-Feb-14 23:30N 37°57' W 122°30'1020.9
2018-Feb-14 23:00N 37°48' W 122°24'714.0
2018-Feb-14 22:31N 37°54' W 122°27'4 6.3
2018-Feb-14 21:56N 37°57' W 122°30'0 0.0
2018-Feb-14 20:08N 37°57' W 122°30'0 0.0
2018-Feb-14 20:00N 37°57' W 122°30'0 0.0
2018-Feb-14 19:30N 37°57' W 122°30'1020.0
2018-Feb-14 19:00N 37°49' W 122°23'4 7.2
2018-Feb-14 18:31N 37°52' W 122°25'612.9
2018-Feb-14 18:00N 37°57' W 122°30'3 7.0
2018-Feb-14 17:30N 37°55' W 122°27'714.8
2018-Feb-14 17:00N 37°48' W 122°24'1019.1
2018-Feb-14 16:30N 37°56' W 122°29'0 0.2
2018-Feb-14 16:01N 37°56' W 122°29'918.8
2018-Feb-14 15:30N 37°48' W 122°24'1021.0
2018-Feb-14 15:00N 37°57' W 122°30'714.7
2018-Feb-14 14:31N 37°51' W 122°24'3 6.8
2018-Feb-14 14:01N 37°54' W 122°27'4 8.0
2018-Feb-14 13:30N 37°57' W 122°30'0 0.0
2018-Feb-14 03:48N 37°57' W 122°30'724.2
2018-Feb-14 03:31N 37°52' W 122°24'1 2.9
2018-Feb-14 03:00N 37°53' W 122°25'611.2
2018-Feb-14 02:30N 37°57' W 122°30'1020.9
2018-Feb-14 02:00N 37°48' W 122°24'613.0
2018-Feb-14 01:31N 37°54' W 122°27'4 8.4
2018-Feb-14 01:01N 37°57' W 122°30'1020.7
2018-Feb-14 00:30N 37°48' W 122°24'5 9.6
2018-Feb-14 00:01N 37°52' W 122°25'611.8
2018-Feb-13 23:30N 37°57' W 122°30'1020.9
2018-Feb-13 23:00N 37°48' W 122°24'714.6
2018-Feb-13 22:30N 37°54' W 122°27'4 6.9
2018-Feb-13 22:00N 37°57' W 122°31'0 0.0
2018-Feb-13 21:30N 37°57' W 122°31'0 0.0
2018-Feb-13 21:00N 37°57' W 122°31'0 0.0
2018-Feb-13 20:30N 37°57' W 122°31'0 0.0
2018-Feb-13 20:00N 37°57' W 122°31'0 0.0
2018-Feb-13 19:30N 37°57' W 122°31'1020.4
2018-Feb-13 19:01N 37°49' W 122°23'3 5.7
2018-Feb-13 18:30N 37°51' W 122°24'714.6
2018-Feb-13 18:01N 37°57' W 122°30'4 7.7
2018-Feb-13 17:31N 37°54' W 122°27'714.0
2018-Feb-13 17:00N 37°48' W 122°24'917.1
2018-Feb-13 16:31N 37°56' W 122°28'1 2.6
2018-Feb-13 16:00N 37°56' W 122°29'1019.2
2018-Feb-13 15:30N 37°48' W 122°24'1020.9
2018-Feb-13 15:00N 37°57' W 122°30'714.0
2018-Feb-13 14:31N 37°52' W 122°24'3 5.1
2018-Feb-13 14:01N 37°54' W 122°27'4 8.3
2018-Feb-13 13:29N 37°57' W 122°30'0 0.0
2018-Feb-13 03:50N 37°57' W 122°30'823.7
2018-Feb-13 03:31N 37°51' W 122°24'2 4.8
2018-Feb-13 03:00N 37°53' W 122°26'611.0
2018-Feb-13 02:30N 37°57' W 122°30'1020.8
2018-Feb-13 02:01N 37°48' W 122°23'510.5
2018-Feb-13 01:31N 37°53' W 122°26'5 9.8
2018-Feb-13 01:01N 37°56' W 122°30'1020.1
2018-Feb-13 00:30N 37°48' W 122°24'5 9.8
2018-Feb-13 00:01N 37°52' W 122°25'611.1
2018-Feb-12 23:31N 37°56' W 122°30'1020.0
2018-Feb-12 23:00N 37°48' W 122°24'714.8
2018-Feb-12 22:31N 37°54' W 122°27'3 6.8
2018-Feb-12 22:00N 37°57' W 122°31'0 0.0
2018-Feb-12 21:30N 37°57' W 122°31'0 0.0
2018-Feb-12 21:00N 37°57' W 122°31'0 0.0
2018-Feb-12 20:30N 37°57' W 122°31'0 0.0
2018-Feb-12 20:00N 37°57' W 122°31'0 0.0
2018-Feb-12 19:30N 37°57' W 122°31'1020.9
2018-Feb-12 19:00N 37°48' W 122°23'3 5.9
2018-Feb-12 18:31N 37°51' W 122°25'714.8
2018-Feb-12 18:00N 37°57' W 122°30'3 6.9
2018-Feb-12 17:31N 37°55' W 122°27'814.9
2018-Feb-12 17:00N 37°48' W 122°24'817.1
2018-Feb-12 16:31N 37°55' W 122°28'0 0.6
2018-Feb-12 16:01N 37°56' W 122°28'917.4
2018-Feb-12 15:30N 37°48' W 122°24'1020.9
2018-Feb-12 15:00N 37°57' W 122°30'816.5
2018-Feb-12 14:31N 37°50' W 122°24'5 9.8
2018-Feb-12 14:01N 37°54' W 122°27'3 6.6
2018-Feb-12 13:29N 37°57' W 122°30'  
2018-Feb-10 03:46N 37°57' W 122°30'726.5
2018-Feb-10 03:30N 37°52' W 122°24'2 4.6
2018-Feb-10 03:01N 37°49' W 122°24'917.8
2018-Feb-10 02:30N 37°57' W 122°30'1020.3
2018-Feb-10 01:59N 37°48' W 122°24'611.5
2018-Feb-10 01:30N 37°53' W 122°26'510.4
2018-Feb-10 01:01N 37°57' W 122°30'1020.7
2018-Feb-10 00:30N 37°48' W 122°24'510.6
2018-Feb-10 00:00N 37°53' W 122°25'510.9
2018-Feb-09 23:30N 37°57' W 122°30'1020.8
2018-Feb-09 23:00N 37°48' W 122°24'0 0.0
2018-Feb-09 22:46N 37°48' W 122°24'1 0.2
2018-Feb-09 19:00N 37°48' W 122°23'4 7.4
2018-Feb-09 18:30N 37°52' W 122°25'4 2.8
2018-Feb-09 17:01N 37°48' W 122°24'1019.4
2018-Feb-09 16:31N 37°56' W 122°30'0 0.0
2018-Feb-09 16:00N 37°56' W 122°30'1019.5
2018-Feb-09 15:30N 37°48' W 122°24'4 3.8
2018-Feb-09 14:30N 37°52' W 122°24'0 0.0
2018-Feb-09 03:30N 37°52' W 122°24'1 2.2
2018-Feb-09 03:00N 37°52' W 122°25'611.7
2018-Feb-09 02:30N 37°57' W 122°30'6 6.0
2018-Feb-09 01:31N 37°52' W 122°25'611.8
2018-Feb-09 01:00N 37°57' W 122°30'5 4.9
2018-Feb-09 00:00N 37°53' W 122°26'1 1.0
2018-Feb-08 22:31N 37°54' W 122°27'4 7.1
2018-Feb-08 22:00N 37°57' W 122°31'0 0.0
2018-Feb-08 21:30N 37°57' W 122°31'0 0.0
2018-Feb-08 21:00N 37°57' W 122°31'0 0.0
2018-Feb-08 20:30N 37°57' W 122°31'0 0.0
2018-Feb-08 20:00N 37°57' W 122°31'0 0.0
2018-Feb-08 19:30N 37°57' W 122°31'1019.8
2018-Feb-08 19:00N 37°49' W 122°23'10 9.8
2018-Feb-08 18:00N 37°57' W 122°30'1010.4
2018-Feb-08 17:00N 37°48' W 122°24'1 0.5
2018-Feb-08 14:30N 37°49' W 122°23'10 9.7
2018-Feb-08 13:30N 37°57' W 122°30'0 0.0
2018-Feb-08 04:30N 37°57' W 122°30'7 7.0
2018-Feb-08 03:30N 37°52' W 122°24'2 3.4
2018-Feb-08 03:00N 37°53' W 122°26'510.5
2018-Feb-08 02:30N 37°57' W 122°30'3 3.2
2018-Feb-08 01:30N 37°55' W 122°27'3 6.4
2018-Feb-08 01:01N 37°57' W 122°30'1020.8
2018-Feb-08 00:30N 37°48' W 122°24'5 9.6
2018-Feb-08 00:01N 37°52' W 122°25'611.8
2018-Feb-07 23:30N 37°57' W 122°30'1020.9
2018-Feb-07 23:00N 37°48' W 122°24'815.8
2018-Feb-07 22:30N 37°55' W 122°27'3 5.9
2018-Feb-07 22:00N 37°57' W 122°31'0 0.0
2018-Feb-07 21:31N 37°57' W 122°31'0 0.0
2018-Feb-07 06:06N 37°57' W 122°30'0 0.2
2018-Feb-07 06:00N 37°57' W 122°30'0 0.3
2018-Feb-07 05:31N 37°57' W 122°30'0 0.0
2018-Feb-07 04:30N 37°57' W 122°30'0 0.0
2018-Feb-07 04:00N 37°57' W 122°30'  

Dump ship's entire track history